Time;durP1;ratioP1;P1;durP2;ratioP2;P2;SDS_P1;SDS_P2;PMS_P1;PMS_P2;Temp;Humidity;BMP_temperature;BMP_pressure;BME280_temperature;BME280_humidity;BME280_pressure;Samples;Min_cycle;Max_cycle;Signal;HPM_P1;HPM_P2
2022/06/01 00:00:31;;;;;;;4.25;0.52;;;11.80;63.20;;;;;;5088525;28;20493;-84
2022/06/01 00:02:58;;;;;;;2.25;0.30;;;11.90;63.80;;;;;;5088464;28;20449;-82
2022/06/01 00:05:26;;;;;;;0.82;0.20;;;11.80;62.10;;;;;;5088565;28;20403;-84
2022/06/01 00:07:53;;;;;;;0.50;0.30;;;11.90;62.70;;;;;;5091098;28;20933;-84
2022/06/01 00:10:21;;;;;;;1.70;0.27;;;12.00;61.80;;;;;;5093183;28;20459;-87
2022/06/01 00:12:48;;;;;;;2.67;0.30;;;11.90;61.20;;;;;;5093221;28;20379;-85
2022/06/01 00:15:16;;;;;;;2.80;0.20;;;12.00;62.20;;;;;;5092684;28;20726;-85
2022/06/01 00:17:43;;;;;;;1.15;0.20;;;12.00;62.80;;;;;;5092594;28;20372;-87
2022/06/01 00:20:11;;;;;;;1.38;0.25;;;12.00;63.00;;;;;;5092506;28;20418;-88
2022/06/01 00:22:38;;;;;;;0.70;0.30;;;12.00;62.50;;;;;;5092459;28;20408;-88
2022/06/01 00:25:07;;;;;;;0.95;0.30;;;12.00;63.00;;;;;;5092391;28;20364;-88
2022/06/01 00:27:36;;;;;;;1.90;0.20;;;12.10;62.40;;;;;;5074216;28;20457;-87
2022/06/01 00:30:09;;;;;;;1.17;0.28;;;12.10;62.30;;;;;;5092189;28;20383;-84
2022/06/01 00:32:36;;;;;;;0.38;0.30;;;12.00;60.40;;;;;;5092753;28;20364;-86
2022/06/01 00:35:05;;;;;;;2.28;0.30;;;12.00;62.50;;;;;;5092265;28;20402;-86
2022/06/01 00:37:32;;;;;;;0.60;0.17;;;12.10;62.10;;;;;;5092619;28;20368;-87
2022/06/01 00:39:58;;;;;;;1.02;0.30;;;12.30;60.60;;;;;;5092114;28;20380;-87
2022/06/01 00:42:29;;;;;;;0.90;0.20;;;12.30;59.60;;;;;;5091964;28;20425;-86
2022/06/01 00:44:56;;;;;;;2.33;0.43;;;12.30;61.00;;;;;;5092428;28;20372;-85
2022/06/01 00:47:26;;;;;;;0.30;0.30;;;12.40;60.90;;;;;;5091853;28;20396;-87
2022/06/01 00:50:22;;;;;;;1.63;0.30;;;12.50;60.80;;;;;;5092064;28;20368;-87
2022/06/01 00:53:03;;;;;;;2.65;0.50;;;12.60;59.30;;;;;;5092143;28;20376;-86
2022/06/01 00:55:37;;;;;;;2.28;0.30;;;12.50;59.20;;;;;;5091875;28;20372;-86
2022/06/01 00:58:10;;;;;;;1.38;0.20;;;12.60;58.30;;;;;;5091822;28;20451;-86
2022/06/01 01:00:39;;;;;;;2.40;0.40;;;12.60;58.80;;;;;;5091865;28;20395;-85
2022/06/01 01:03:10;;;;;;;0.75;0.25;;;12.70;59.20;;;;;;5092138;28;20369;-86
2022/06/01 01:05:41;;;;;;;1.45;0.30;;;12.60;57.50;;;;;;5091744;28;20377;-86
2022/06/01 01:08:09;;;;;;;0.75;0.20;;;12.70;58.60;;;;;;5091591;28;20869;-86
2022/06/01 01:10:36;;;;;;;1.53;0.30;;;12.70;57.90;;;;;;5091620;28;20372;-86
2022/06/01 01:13:06;;;;;;;1.10;0.30;;;12.70;57.50;;;;;;5088590;28;20380;-84
2022/06/01 01:15:51;;;;;;;0.40;0.30;;;12.80;56.80;;;;;;5091356;28;20482;-87
2022/06/01 01:18:20;;;;;;;1.08;0.25;;;12.90;56.70;;;;;;5090342;28;20365;-85
2022/06/01 01:21:19;;;;;;;2.63;0.30;;;13.10;57.40;;;;;;5091366;28;20379;-85
2022/06/01 01:23:49;;;;;;;0.40;0.20;;;13.30;55.90;;;;;;4990148;28;20373;-86
2022/06/01 01:26:16;;;;;;;1.83;0.30;;;13.20;55.30;;;;;;4989468;28;20442;-87
2022/06/01 01:28:43;;;;;;;0.50;0.30;;;13.20;56.00;;;;;;4989873;28;20439;-86
2022/06/01 01:31:17;;;;;;;0.43;0.25;;;13.30;54.90;;;;;;4989715;28;20373;-87
2022/06/01 01:33:48;;;;;;;0.40;0.20;;;13.20;54.50;;;;;;4989768;28;20765;-86
2022/06/01 01:36:17;;;;;;;1.50;0.30;;;13.10;55.40;;;;;;4993115;28;20489;-87
2022/06/01 01:38:57;;;;;;;1.83;0.40;;;13.20;55.00;;;;;;4993119;28;20898;-87
2022/06/01 01:41:42;;;;;;;0.75;0.30;;;13.20;55.20;;;;;;5009147;28;20383;-86
2022/06/01 01:44:46;;;;;;;0.50;0.50;;;13.20;55.50;;;;;;5009295;28;20738;-85
2022/06/01 01:47:13;;;;;;;0.30;0.10;;;13.30;55.80;;;;;;5008850;28;20430;-85
2022/06/01 01:49:41;;;;;;;2.20;0.20;;;13.30;53.90;;;;;;5009485;28;20917;-86
2022/06/01 01:52:15;;;;;;;1.90;0.30;;;13.20;54.70;;;;;;5009138;28;20384;-86
2022/06/01 01:54:57;;;;;;;0.20;0.20;;;13.10;56.10;;;;;;5008997;28;20426;-86
2022/06/01 01:57:51;;;;;;;0.50;0.20;;;13.10;54.90;;;;;;5009336;28;20390;-84
2022/06/01 02:00:25;;;;;;;1.30;0.20;;;13.30;55.70;;;;;;5038444;28;20438;-80
2022/06/01 02:03:04;;;;;;;0.80;0.30;;;13.40;55.10;;;;;;5090620;28;20383;-81
2022/06/01 02:08:28;;;;;;;0.20;0.10;;;13.30;55.80;;;;;;5090586;28;20450;-86
2022/06/01 02:13:58;;;;;;;3.08;0.40;;;13.50;56.10;;;;;;5090325;28;20701;-85
2022/06/01 02:16:28;;;;;;;0.60;0.20;;;13.40;55.20;;;;;;5090356;28;20436;-87
2022/06/01 02:18:59;;;;;;;1.77;0.20;;;13.40;55.20;;;;;;5090865;28;20367;-85
2022/06/01 02:21:28;;;;;;;0.30;0.23;;;13.30;54.80;;;;;;5089121;28;20389;-86
2022/06/01 02:23:59;;;;;;;1.90;0.40;;;13.30;54.80;;;;;;5090426;28;20376;-87
2022/06/01 02:26:28;;;;;;;0.60;0.30;;;13.40;56.00;;;;;;5090250;28;20406;-87
2022/06/01 02:29:07;;;;;;;0.65;0.15;;;13.40;55.30;;;;;;5093250;28;20379;-86
2022/06/01 02:31:35;;;;;;;1.23;0.30;;;13.40;54.30;;;;;;5089697;28;20452;-86
2022/06/01 02:34:03;;;;;;;2.95;0.40;;;13.40;56.00;;;;;;5088855;28;20797;-84
2022/06/01 02:36:31;;;;;;;0.40;0.30;;;13.40;55.70;;;;;;5091997;28;20854;-87
2022/06/01 02:39:00;;;;;;;1.40;0.38;;;13.40;55.50;;;;;;5090811;28;20403;-88
2022/06/01 02:44:12;;;;;;;1.27;0.30;;;13.60;55.80;;;;;;5089969;28;20792;-88
2022/06/01 02:46:39;;;;;;;1.17;0.40;;;13.60;55.10;;;;;;5089755;28;20475;-86
2022/06/01 02:49:06;;;;;;;0.93;0.38;;;13.60;54.40;;;;;;5089941;28;20384;-86
2022/06/01 02:51:33;;;;;;;1.48;0.50;;;13.50;55.10;;;;;;5089468;28;20424;-85
2022/06/01 02:54:00;;;;;;;1.15;0.25;;;13.50;54.10;;;;;;5089577;28;20877;-86
2022/06/01 02:56:28;;;;;;;2.30;0.50;;;13.40;54.30;;;;;;5089574;28;20443;-85
2022/06/01 02:58:56;;;;;;;2.50;0.50;;;13.40;54.50;;;;;;5089276;28;20867;-85
2022/06/01 03:01:23;;;;;;;1.00;0.25;;;13.50;55.30;;;;;;5089400;28;20384;-85
2022/06/01 03:03:50;;;;;;;2.30;0.40;;;13.50;53.00;;;;;;5089454;28;20451;-85
2022/06/01 03:06:17;;;;;;;1.33;0.30;;;13.40;54.70;;;;;;5071061;28;20409;-85
2022/06/01 03:08:45;;;;;;;1.00;0.40;;;13.50;54.80;;;;;;5089311;28;20415;-83
2022/06/01 03:11:13;;;;;;;1.45;0.50;;;13.60;54.60;;;;;;5089198;28;20378;-85
2022/06/01 03:13:41;;;;;;;0.80;0.40;;;13.60;53.90;;;;;;5071119;28;20431;-84
2022/06/01 03:16:08;;;;;;;1.50;0.30;;;13.50;54.30;;;;;;5089240;28;20735;-85
2022/06/01 03:18:35;;;;;;;0.95;0.35;;;13.40;53.50;;;;;;5089081;28;20388;-85
2022/06/01 03:21:02;;;;;;;1.15;0.40;;;13.40;54.60;;;;;;5089405;28;20706;-83
2022/06/01 03:23:29;;;;;;;1.20;0.30;;;13.60;54.80;;;;;;5089269;28;20380;-84
2022/06/01 03:25:56;;;;;;;0.90;0.30;;;13.50;54.90;;;;;;5088866;28;20418;-85
2022/06/01 03:28:23;;;;;;;1.10;0.40;;;13.60;55.00;;;;;;5088761;28;20392;-84
2022/06/01 03:30:50;;;;;;;1.63;0.30;;;13.70;54.80;;;;;;5088886;28;20372;-85
2022/06/01 03:33:17;;;;;;;0.80;0.30;;;13.80;54.10;;;;;;5088773;28;20468;-84
2022/06/01 03:35:44;;;;;;;1.67;0.40;;;13.60;53.70;;;;;;5088589;28;20848;-85
2022/06/01 03:38:12;;;;;;;1.48;0.50;;;13.60;55.40;;;;;;5088565;28;20364;-85
2022/06/01 03:40:39;;;;;;;2.00;0.37;;;14.00;56.20;;;;;;5070479;28;20429;-85
2022/06/01 03:43:07;;;;;;;1.00;0.30;;;13.80;53.90;;;;;;5088104;28;20372;-84
2022/06/01 03:48:20;;;;;;;1.20;0.40;;;13.80;54.50;;;;;;5088711;28;20456;-85
2022/06/01 03:50:47;;;;;;;1.93;0.40;;;13.70;54.90;;;;;;5088656;28;20368;-85
2022/06/01 03:53:15;;;;;;;0.77;0.40;;;13.80;55.40;;;;;;5088705;28;20845;-85
2022/06/01 03:55:42;;;;;;;1.40;0.40;;;13.90;54.00;;;;;;5088630;28;20955;-85
2022/06/01 03:58:18;;;;;;;1.00;0.25;;;13.80;54.30;;;;;;5089054;28;20387;-85
2022/06/01 04:00:46;;;;;;;0.95;0.40;;;13.80;54.80;;;;;;5088560;28;20368;-85
2022/06/01 04:03:13;;;;;;;0.80;0.30;;;13.60;55.50;;;;;;5088561;28;20453;-85
2022/06/01 04:05:41;;;;;;;1.27;0.40;;;13.50;54.70;;;;;;5070358;28;20736;-85
2022/06/01 04:08:09;;;;;;;0.57;0.50;;;13.60;55.30;;;;;;5088570;28;20822;-84
2022/06/01 04:10:38;;;;;;;0.60;0.40;;;13.50;54.80;;;;;;5088548;28;20376;-85
2022/06/01 04:13:05;;;;;;;1.10;0.50;;;13.50;55.50;;;;;;5089388;28;20851;-86
2022/06/01 04:15:32;;;;;;;1.15;0.43;;;13.60;56.20;;;;;;5088259;28;20379;-85
2022/06/01 04:17:59;;;;;;;0.93;0.47;;;13.80;55.70;;;;;;5088489;28;20434;-84
2022/06/01 04:20:26;;;;;;;0.93;0.33;;;13.70;54.80;;;;;;5088357;28;20368;-85
2022/06/01 04:22:54;;;;;;;0.65;0.40;;;13.60;55.60;;;;;;5088344;28;20388;-85
2022/06/01 04:25:22;;;;;;;1.50;0.40;;;13.50;56.50;;;;;;5088368;28;20380;-86
2022/06/01 04:27:49;;;;;;;2.90;0.60;;;13.50;56.50;;;;;;5088304;28;20599;-85
2022/06/01 04:30:17;;;;;;;3.03;0.93;;;13.50;56.50;;;;;;5088246;28;20372;-85
2022/06/01 04:32:46;;;;;;;2.85;0.55;;;13.60;57.30;;;;;;5088139;28;20925;-84
2022/06/01 04:35:13;;;;;;;0.80;0.40;;;13.70;56.40;;;;;;5077717;28;20500;-85
2022/06/01 04:37:40;;;;;;;1.33;0.60;;;13.60;57.20;;;;;;5086907;28;20910;-84
2022/06/01 04:40:08;;;;;;;2.42;0.68;;;13.50;57.60;;;;;;5087016;28;20380;-85
2022/06/01 04:42:35;;;;;;;2.72;0.70;;;13.70;57.00;;;;;;5088246;28;20368;-84
2022/06/01 04:45:03;;;;;;;1.15;0.55;;;13.70;57.70;;;;;;5088177;28;20369;-85
2022/06/01 04:47:30;;;;;;;0.80;0.40;;;13.80;57.60;;;;;;5088198;28;20801;-84
2022/06/01 04:49:58;;;;;;;2.42;0.65;;;13.80;58.30;;;;;;5088132;28;20375;-86
2022/06/01 04:52:25;;;;;;;1.50;0.40;;;13.90;56.60;;;;;;5088239;28;20391;-85
2022/06/01 04:54:52;;;;;;;1.50;0.80;;;13.90;56.80;;;;;;5092089;28;20414;-85
2022/06/01 04:57:19;;;;;;;2.27;0.77;;;13.90;56.60;;;;;;5091783;28;20840;-84
2022/06/01 04:59:46;;;;;;;1.43;0.70;;;14.00;56.90;;;;;;5091753;28;20452;-85
2022/06/01 05:02:13;;;;;;;7.30;5.77;;;13.80;57.00;;;;;;5091647;28;20373;-85
2022/06/01 05:04:40;;;;;;;5.13;3.53;;;13.70;57.80;;;;;;5091713;28;20377;-85
2022/06/01 05:07:07;;;;;;;4.63;3.97;;;13.60;56.90;;;;;;5091403;28;20404;-84
2022/06/01 05:09:34;;;;;;;3.15;2.55;;;13.60;57.60;;;;;;5091463;28;20721;-85
2022/06/01 05:12:02;;;;;;;9.80;8.32;;;13.70;57.90;;;;;;5091798;28;20422;-85
2022/06/01 05:14:29;;;;;;;3.03;1.88;;;13.70;58.20;;;;;;5089980;28;20898;-86
2022/06/01 05:17:00;;;;;;;4.30;3.65;;;13.60;58.30;;;;;;5091544;28;20488;-85
2022/06/01 05:19:28;;;;;;;2.00;0.80;;;13.70;58.10;;;;;;5091132;28;20368;-85
2022/06/01 05:21:57;;;;;;;3.07;0.90;;;13.60;58.40;;;;;;5091526;28;20464;-84
2022/06/01 05:24:24;;;;;;;2.27;0.67;;;13.60;59.00;;;;;;5091463;28;20398;-86
2022/06/01 05:26:51;;;;;;;2.10;0.77;;;13.50;58.60;;;;;;5091103;28;20400;-84
2022/06/01 05:29:18;;;;;;;1.33;0.60;;;13.50;59.30;;;;;;5091136;28;20388;-85
2022/06/01 05:31:45;;;;;;;4.32;2.13;;;13.50;59.40;;;;;;5091031;28;20514;-84
2022/06/01 05:34:12;;;;;;;3.40;1.87;;;13.50;59.80;;;;;;5090884;28;20508;-84
2022/06/01 05:36:39;;;;;;;1.90;0.60;;;13.40;59.70;;;;;;5090779;28;20447;-85
2022/06/01 05:39:06;;;;;;;1.20;0.60;;;13.50;60.70;;;;;;5090843;28;20452;-86
2022/06/01 05:41:33;;;;;;;1.53;1.17;;;13.40;59.60;;;;;;5090801;28;20392;-85
2022/06/01 05:44:00;;;;;;;1.13;0.60;;;13.40;60.20;;;;;;5090669;28;20425;-85
2022/06/01 05:46:27;;;;;;;1.15;0.60;;;13.40;61.30;;;;;;5090801;28;20848;-84
2022/06/01 05:48:54;;;;;;;2.50;1.45;;;13.50;60.90;;;;;;5090635;28;20857;-84
2022/06/01 05:51:23;;;;;;;2.60;0.77;;;13.50;60.80;;;;;;5090892;28;20372;-85
2022/06/01 05:53:50;;;;;;;2.22;0.70;;;13.40;62.30;;;;;;5090509;28;20513;-85
2022/06/01 05:56:17;;;;;;;1.48;0.60;;;13.40;62.10;;;;;;5090631;28;20357;-85
2022/06/01 05:58:45;;;;;;;1.10;0.43;;;13.30;61.10;;;;;;5073146;28;20406;-85
2022/06/01 06:01:12;;;;;;;1.17;0.50;;;13.30;61.80;;;;;;5090596;28;20462;-84
2022/06/01 06:03:39;;;;;;;1.53;0.50;;;13.20;62.50;;;;;;5090736;28;20380;-83
2022/06/01 06:06:12;;;;;;;1.45;0.70;;;13.20;62.40;;;;;;5089757;28;20364;-87
2022/06/01 06:08:41;;;;;;;1.50;0.60;;;13.10;63.50;;;;;;5090386;28;20441;-85
2022/06/01 06:11:08;;;;;;;1.20;0.60;;;13.00;63.50;;;;;;5090513;28;20364;-85
2022/06/01 06:13:36;;;;;;;1.58;0.60;;;12.90;65.40;;;;;;5090262;28;20474;-85
2022/06/01 06:16:04;;;;;;;0.98;0.60;;;12.80;64.20;;;;;;5090229;28;20380;-88
2022/06/01 06:18:31;;;;;;;1.45;0.50;;;12.80;63.80;;;;;;5090287;28;20412;-84
2022/06/01 06:20:58;;;;;;;1.00;0.40;;;12.70;63.60;;;;;;5090238;28;20373;-81
2022/06/01 06:23:25;;;;;;;2.30;0.60;;;12.70;63.80;;;;;;5090067;28;20451;-84
2022/06/01 06:25:52;;;;;;;0.98;0.50;;;12.60;64.70;;;;;;5089835;28;20366;-83
2022/06/01 06:28:22;;;;;;;1.95;0.60;;;12.50;64.60;;;;;;5089952;28;20457;-84
2022/06/01 06:30:48;;;;;;;1.75;0.70;;;12.40;65.70;;;;;;5089879;28;20367;-83
2022/06/01 06:33:15;;;;;;;1.90;0.80;;;12.30;66.40;;;;;;5089875;28;20503;-87
2022/06/01 06:35:42;;;;;;;1.63;0.50;;;12.20;66.30;;;;;;5089787;28;20476;-81
2022/06/01 06:38:09;;;;;;;1.85;0.80;;;12.20;66.00;;;;;;5090382;28;20692;-84
2022/06/01 06:40:37;;;;;;;1.27;0.57;;;12.10;66.50;;;;;;5089803;28;20379;-83
2022/06/01 06:43:05;;;;;;;0.82;0.50;;;12.10;66.80;;;;;;5089713;28;20787;-85
2022/06/01 06:45:32;;;;;;;1.58;0.60;;;12.00;68.10;;;;;;5089751;28;20911;-84
2022/06/01 06:47:59;;;;;;;1.55;0.73;;;11.90;67.80;;;;;;5089807;28;20407;-84
2022/06/01 06:50:26;;;;;;;2.40;1.25;;;11.80;68.80;;;;;;5089607;28;20430;-85
2022/06/01 06:52:52;;;;;;;1.58;1.15;;;11.70;69.00;;;;;;5090185;28;20712;-85
2022/06/01 06:55:19;;;;;;;5.82;4.90;;;11.70;69.30;;;;;;5089404;28;20364;-89
2022/06/01 06:57:47;;;;;;;1.35;0.70;;;11.60;69.50;;;;;;5089447;28;20376;-84
2022/06/01 07:00:14;;;;;;;1.00;0.40;;;11.60;69.50;;;;;;5089524;28;20379;-87
2022/06/01 07:02:41;;;;;;;3.20;0.63;;;11.60;69.70;;;;;;5089443;28;20422;-85
2022/06/01 07:05:09;;;;;;;1.52;1.42;;;11.50;69.80;;;;;;5089122;28;20365;-84
2022/06/01 07:07:36;;;;;;;4.55;4.10;;;11.40;71.10;;;;;;5089094;28;20445;-85
2022/06/01 07:10:03;;;;;;;0.93;0.80;;;11.30;71.10;;;;;;5089000;28;20852;-85
2022/06/01 07:12:30;;;;;;;1.23;0.80;;;11.20;71.80;;;;;;5089101;28;20376;-85
2022/06/01 07:14:57;;;;;;;1.13;0.70;;;11.10;73.70;;;;;;5089036;28;20375;-86
2022/06/01 07:17:25;;;;;;;1.92;0.80;;;11.00;74.00;;;;;;5089368;28;20376;-85
2022/06/01 07:19:55;;;;;;;2.63;1.15;;;10.90;75.30;;;;;;5089303;28;20400;-85
2022/06/01 07:22:23;;;;;;;6.85;4.82;;;10.80;75.00;;;;;;5089351;28;20780;-84
2022/06/01 07:24:49;;;;;;;5.40;3.85;;;10.50;76.00;;;;;;5088768;28;20364;-87
2022/06/01 07:27:18;;;;;;;6.57;5.20;;;10.30;77.10;;;;;;5089468;28;20868;-83
2022/06/01 07:29:44;;;;;;;5.28;2.40;;;10.20;80.50;;;;;;5089357;28;20380;-86
2022/06/01 07:32:11;;;;;;;5.43;1.92;;;10.30;81.30;;;;;;5088940;28;20404;-85
2022/06/01 07:34:38;;;;;;;3.20;1.80;;;10.30;82.90;;;;;;5088423;28;20537;-85
2022/06/01 07:48:44;;;;;;;7.17;2.67;;;10.10;86.80;;;;;;5088719;28;20388;-85
2022/06/01 07:51:11;;;;;;;5.13;1.90;;;10.10;86.60;;;;;;5088570;28;20859;-85
2022/06/01 07:53:38;;;;;;;4.40;1.90;;;10.10;88.40;;;;;;5070446;28;20882;-85
2022/06/01 07:56:05;;;;;;;3.88;1.30;;;10.20;86.70;;;;;;5088610;28;20434;-84
2022/06/01 07:58:32;;;;;;;2.55;1.30;;;10.20;86.30;;;;;;5088732;28;20981;-88
2022/06/01 08:00:59;;;;;;;3.88;2.00;;;10.20;86.50;;;;;;5088482;28;20398;-83
2022/06/01 08:03:26;;;;;;;3.30;1.60;;;10.10;87.10;;;;;;5089144;28;20438;-83
2022/06/01 08:05:54;;;;;;;1.58;1.30;;;10.10;87.70;;;;;;5090345;28;20372;-83
2022/06/01 08:08:21;;;;;;;2.40;1.40;;;9.90;89.00;;;;;;5072115;28;20838;-89
2022/06/01 08:10:48;;;;;;;3.47;1.38;;;9.70;90.00;;;;;;5089952;28;20369;-84
2022/06/01 08:13:16;;;;;;;3.23;2.53;;;9.80;91.00;;;;;;5089747;28;20463;-84
2022/06/01 08:15:46;;;;;;;2.78;1.73;;;10.20;89.30;;;;;;5089384;28;20368;-85
2022/06/01 08:18:16;;;;;;;3.40;1.60;;;10.30;89.10;;;;;;5090171;28;20903;-83
2022/06/01 08:20:44;;;;;;;4.38;2.10;;;10.40;87.60;;;;;;5090482;28;20443;-85
2022/06/01 08:23:12;;;;;;;2.88;1.52;;;10.50;87.90;;;;;;5088992;28;20380;-84
2022/06/01 08:25:41;;;;;;;4.28;3.42;;;10.40;88.50;;;;;;5070161;28;20780;-85
2022/06/01 08:28:09;;;;;;;11.00;7.75;;;10.40;88.90;;;;;;5089475;28;20436;-84
2022/06/01 08:30:38;;;;;;;4.50;2.97;;;10.30;88.70;;;;;;5073962;28;20929;-84
2022/06/01 08:33:06;;;;;;;9.35;6.60;;;10.20;89.40;;;;;;5092021;28;20372;-84
2022/06/01 08:35:37;;;;;;;4.53;2.67;;;10.00;90.20;;;;;;5091943;28;20459;-84
2022/06/01 08:38:05;;;;;;;8.50;6.50;;;10.00;90.40;;;;;;5096094;28;20372;-84
2022/06/01 08:40:49;;;;;;;7.32;5.70;;;10.10;90.30;;;;;;5092010;28;20403;-85
2022/06/01 08:43:19;;;;;;;8.32;6.35;;;10.10;90.40;;;;;;5092058;28;20379;-84
2022/06/01 08:45:51;;;;;;;9.15;5.43;;;10.00;90.50;;;;;;5092323;28;20373;-85
2022/06/01 08:48:24;;;;;;;7.22;5.97;;;10.10;90.50;;;;;;5091869;28;20902;-84
2022/06/01 08:50:52;;;;;;;2.97;2.60;;;10.10;90.30;;;;;;5092022;28;20361;-85
2022/06/01 08:53:22;;;;;;;3.50;2.38;;;10.30;90.20;;;;;;5073552;28;20384;-84
2022/06/01 08:56:04;;;;;;;2.38;1.50;;;10.30;90.30;;;;;;5091868;28;20376;-85
2022/06/01 08:58:54;;;;;;;2.80;1.50;;;10.30;89.50;;;;;;5094364;28;20462;-84
2022/06/01 09:01:39;;;;;;;2.25;1.90;;;10.40;89.60;;;;;;5097993;28;20372;-88
2022/06/01 09:04:19;;;;;;;3.20;2.58;;;10.40;90.00;;;;;;5096527;28;20372;-85
2022/06/01 09:06:56;;;;;;;12.32;8.50;;;10.30;90.10;;;;;;5092219;28;20376;-86
2022/06/01 09:09:46;;;;;;;67.10;49.67;;;10.20;90.30;;;;;;5091706;28;20460;-86
2022/06/01 09:12:14;;;;;;;9.30;7.43;;;10.10;91.30;;;;;;5091679;28;20452;-86
2022/06/01 09:14:45;;;;;;;14.52;11.95;;;10.00;91.60;;;;;;5091343;28;20795;-86
2022/06/01 09:17:12;;;;;;;13.07;10.60;;;9.90;92.00;;;;;;5091555;28;20421;-85
2022/06/01 09:22:37;;;;;;;10.13;6.47;;;9.50;93.40;;;;;;5091967;28;20888;-84
2022/06/01 09:25:10;;;;;;;7.85;5.55;;;9.30;94.80;;;;;;5091377;28;20915;-86
2022/06/01 09:27:44;;;;;;;6.40;4.43;;;9.10;96.20;;;;;;5091709;28;20396;-85
2022/06/01 09:30:25;;;;;;;6.60;3.83;;;9.00;97.10;;;;;;5091199;28;20365;-85
2022/06/01 09:33:15;;;;;;;5.80;3.20;;;8.90;98.20;;;;;;5090960;28;20397;-85
2022/06/01 09:36:07;;;;;;;5.30;3.20;;;8.70;99.00;;;;;;5091555;28;20384;-87
2022/06/01 09:38:51;;;;;;;4.75;3.10;;;8.50;99.80;;;;;;4973150;28;20840;-86
2022/06/01 09:41:24;;;;;;;4.47;2.80;;;8.40;99.90;;;;;;4988452;28;20398;-85
2022/06/01 09:43:59;;;;;;;114.05;102.70;;;8.30;99.90;;;;;;4989577;28;20750;-86
2022/06/01 09:46:33;;;;;;;27.58;24.83;;;8.20;99.90;;;;;;4989614;28;20465;-86
2022/06/01 09:49:05;;;;;;;28.25;23.75;;;8.10;99.90;;;;;;4989265;28;20388;-86
2022/06/01 09:51:37;;;;;;;77.90;69.75;;;8.10;99.90;;;;;;4989602;28;20384;-86
2022/06/01 09:54:21;;;;;;;8.82;7.43;;;8.10;99.90;;;;;;4989273;28;20467;-88
2022/06/01 09:56:49;;;;;;;9.00;5.75;;;8.00;99.90;;;;;;4989939;28;20389;-86
2022/06/01 10:08:04;;;;;;;8.95;4.68;;;8.10;99.90;;;;;;4989353;28;20403;-86
2022/06/01 10:10:31;;;;;;;7.80;5.50;;;8.00;99.90;;;;;;4988819;28;20907;-85
2022/06/01 10:13:00;;;;;;;6.05;4.43;;;7.90;99.90;;;;;;4989019;28;20730;-86
2022/06/01 10:15:42;;;;;;;7.70;5.00;;;7.90;99.90;;;;;;5013494;28;20383;-85
2022/06/01 10:18:24;;;;;;;5.72;3.30;;;7.90;99.90;;;;;;5090320;28;20368;-85
2022/06/01 10:21:13;;;;;;;5.57;3.50;;;8.00;99.90;;;;;;5090721;28;20356;-85
2022/06/01 10:23:47;;;;;;;5.05;3.55;;;8.00;99.90;;;;;;5090660;28;20696;-85
2022/06/01 10:26:38;;;;;;;4.17;3.60;;;7.90;99.90;;;;;;5071981;28;20490;-85
2022/06/01 10:29:37;;;;;;;4.32;3.33;;;8.00;99.90;;;;;;5071799;28;20414;-84
2022/06/01 10:32:05;;;;;;;3.90;2.90;;;7.80;99.90;;;;;;5089777;28;20447;-86
2022/06/01 10:34:41;;;;;;;3.35;2.70;;;7.70;99.90;;;;;;5089616;28;20380;-86
2022/06/01 10:37:29;;;;;;;4.07;2.80;;;7.60;99.90;;;;;;5090409;28;20717;-84
2022/06/01 10:40:05;;;;;;;4.85;3.50;;;7.50;99.90;;;;;;5090052;28;20368;-85
2022/06/01 10:45:23;;;;;;;5.80;4.40;;;7.50;99.90;;;;;;5089628;28;20402;-86
2022/06/01 10:47:54;;;;;;;6.97;4.20;;;7.50;99.90;;;;;;5089815;28;20415;-84
2022/06/01 10:50:29;;;;;;;6.13;4.18;;;7.50;99.90;;;;;;5089924;28;20368;-85
2022/06/01 10:53:30;;;;;;;6.38;3.90;;;7.50;99.90;;;;;;5089670;28;20360;-86
2022/06/01 10:55:59;;;;;;;5.47;3.42;;;7.50;99.90;;;;;;5089400;28;20376;-85
2022/06/01 10:58:27;;;;;;;5.05;3.70;;;7.60;99.90;;;;;;5089424;28;20429;-87
2022/06/01 11:01:09;;;;;;;6.88;3.85;;;7.80;99.90;;;;;;5071171;28;20380;-84
2022/06/01 11:04:01;;;;;;;5.30;3.43;;;7.90;99.90;;;;;;5089687;28;20720;-84
2022/06/01 11:06:44;;;;;;;3.92;3.00;;;7.80;99.90;;;;;;5089143;28;20398;-86
2022/06/01 11:09:24;;;;;;;2.85;2.35;;;7.80;99.90;;;;;;5089220;28;20433;-85
2022/06/01 11:11:59;;;;;;;2.95;2.05;;;7.90;99.90;;;;;;5089645;28;20388;-84
2022/06/01 11:14:41;;;;;;;3.05;2.03;;;7.90;99.90;;;;;;5089158;28;20376;-84
2022/06/01 11:17:46;;;;;;;3.22;2.00;;;7.90;99.90;;;;;;5089735;28;20361;-84
2022/06/01 11:20:21;;;;;;;2.37;1.80;;;7.80;99.90;;;;;;5062992;28;20424;-84
2022/06/01 11:23:07;;;;;;;1.85;1.60;;;7.70;99.90;;;;;;5089426;28;20702;-86
2022/06/01 11:25:51;;;;;;;3.17;1.40;;;7.70;99.90;;;;;;5089234;28;20360;-86
2022/06/01 11:28:52;;;;;;;1.23;1.00;;;7.80;99.90;;;;;;5094805;28;20428;-85
2022/06/01 11:31:25;;;;;;;1.50;1.00;;;7.80;99.90;;;;;;5089440;28;20364;-86
2022/06/01 11:34:07;;;;;;;4.87;1.40;;;7.80;99.90;;;;;;5088801;28;20461;-86
2022/06/01 11:37:00;;;;;;;5.80;1.52;;;8.10;99.90;;;;;;5051017;28;20402;-85
2022/06/01 11:39:32;;;;;;;3.15;1.10;;;8.30;99.90;;;;;;5056147;28;20400;-85
2022/06/01 11:42:20;;;;;;;2.72;1.10;;;8.60;99.90;;;;;;5069114;28;20392;-85
2022/06/01 11:44:56;;;;;;;1.83;0.93;;;8.70;99.90;;;;;;5068997;28;20456;-86
2022/06/01 11:47:24;;;;;;;3.00;0.90;;;8.80;99.90;;;;;;5068410;28;20401;-86
2022/06/01 11:50:43;;;;;;;2.75;1.50;;;8.80;99.90;;;;;;5069055;28;20367;-86
2022/06/01 11:53:18;;;;;;;2.60;1.90;;;8.70;99.90;;;;;;4967890;28;20856;-85
2022/06/01 11:55:47;;;;;;;8.13;5.57;;;8.70;99.90;;;;;;4967814;28;20882;-86
2022/06/01 11:58:41;;;;;;;5.93;4.72;;;8.70;99.90;;;;;;4967784;28;20398;-86
2022/06/01 12:01:34;;;;;;;1.40;1.30;;;8.60;99.90;;;;;;4967773;28;20379;-86
2022/06/01 12:04:39;;;;;;;1.20;1.10;;;8.50;99.90;;;;;;4961380;28;20392;-86
2022/06/01 12:07:14;;;;;;;1.42;1.10;;;8.50;99.90;;;;;;4910952;29;20943;-86
2022/06/01 12:09:50;;;;;;;2.13;1.50;;;8.40;99.90;;;;;;4910675;29;20849;-86
2022/06/01 12:12:34;;;;;;;2.67;1.30;;;8.20;99.90;;;;;;4910920;29;20425;-86
2022/06/01 12:15:29;;;;;;;2.00;1.27;;;8.10;99.90;;;;;;4910819;29;20435;-86
2022/06/01 12:18:14;;;;;;;2.10;1.30;;;7.90;99.90;;;;;;4894632;29;20478;-86
2022/06/01 12:20:43;;;;;;;1.30;1.20;;;7.80;99.90;;;;;;4910822;29;20391;-85
2022/06/01 12:29:07;;;;;;;3.10;1.70;;;7.50;99.90;;;;;;4936154;28;20404;-83
2022/06/01 12:31:57;;;;;;;1.85;1.40;;;7.50;99.90;;;;;;4987004;28;20399;-85
2022/06/01 12:34:35;;;;;;;1.27;1.10;;;7.40;99.90;;;;;;4933086;28;20378;-86
2022/06/01 12:37:06;;;;;;;1.08;0.95;;;7.40;99.90;;;;;;4967727;28;20406;-83
2022/06/01 12:39:56;;;;;;;0.95;0.90;;;7.30;99.90;;;;;;4967444;28;20414;-84
2022/06/01 12:42:43;;;;;;;8.43;2.85;;;7.30;99.90;;;;;;4986716;28;20385;-84
2022/06/01 12:45:16;;;;;;;4.88;1.80;;;7.30;99.90;;;;;;5026082;28;20389;-85
2022/06/01 12:48:07;;;;;;;6.32;2.50;;;7.30;99.90;;;;;;5025897;28;20816;-84
2022/06/01 12:50:50;;;;;;;11.52;2.97;;;7.30;99.90;;;;;;5026052;28;20409;-84
2022/06/01 12:53:40;;;;;;;12.57;1.77;;;7.30;99.90;;;;;;5026074;28;20880;-84
2022/06/01 12:56:27;;;;;;;8.00;1.70;;;7.30;99.90;;;;;;5026593;28;20758;-84
2022/06/01 12:58:56;;;;;;;7.72;1.50;;;7.40;99.90;;;;;;5026252;28;20380;-84
2022/06/01 13:01:32;;;;;;;10.52;1.88;;;7.40;99.90;;;;;;5025836;28;20391;-84
2022/06/01 13:04:01;;;;;;;7.07;1.45;;;7.40;99.90;;;;;;5026155;28;20386;-84
2022/06/01 13:06:29;;;;;;;9.67;1.60;;;7.30;99.90;;;;;;5025785;28;20707;-85
2022/06/01 13:09:05;;;;;;;7.38;1.70;;;7.30;99.90;;;;;;5025742;28;20415;-85
2022/06/01 13:11:34;;;;;;;8.13;1.70;;;7.40;99.90;;;;;;5059950;28;20368;-85
2022/06/01 13:14:04;;;;;;;8.43;1.70;;;7.40;99.90;;;;;;5087860;28;20880;-85
2022/06/01 13:16:38;;;;;;;4.95;1.90;;;7.30;99.90;;;;;;5091103;28;20425;-85
2022/06/01 13:19:18;;;;;;;3.28;1.95;;;7.30;99.90;;;;;;5091348;28;20417;-85
2022/06/01 13:21:53;;;;;;;4.30;1.65;;;7.30;99.90;;;;;;5091358;28;20374;-84
2022/06/01 13:24:22;;;;;;;4.30;2.03;;;7.30;99.90;;;;;;5091529;28;20749;-85
2022/06/01 13:26:55;;;;;;;2.88;1.70;;;7.20;99.90;;;;;;5090880;28;20479;-85
2022/06/01 13:29:28;;;;;;;2.72;1.63;;;7.10;99.90;;;;;;5091275;28;20369;-84
2022/06/01 13:32:01;;;;;;;2.00;1.60;;;7.10;99.90;;;;;;5091274;28;20381;-84
2022/06/01 13:34:43;;;;;;;4.32;1.70;;;7.10;99.90;;;;;;5090923;28;20386;-84
2022/06/01 13:37:25;;;;;;;2.80;1.80;;;7.10;99.90;;;;;;5091141;28;20463;-83
2022/06/01 13:40:01;;;;;;;4.90;2.38;;;7.10;99.90;;;;;;5091107;28;20847;-83
2022/06/01 13:42:46;;;;;;;3.00;1.90;;;7.20;99.90;;;;;;5091254;28;20879;-83
2022/06/01 13:45:18;;;;;;;2.75;1.40;;;7.10;99.90;;;;;;5090834;28;20444;-85
2022/06/01 13:47:59;;;;;;;3.13;1.30;;;7.10;99.90;;;;;;5090845;28;20428;-85
2022/06/01 13:50:37;;;;;;;4.68;1.55;;;7.10;99.90;;;;;;5091097;28;20371;-85
2022/06/01 13:53:32;;;;;;;4.18;1.60;;;7.10;99.90;;;;;;5090739;28;20728;-84
2022/06/01 13:56:21;;;;;;;4.00;1.87;;;7.10;99.90;;;;;;5090785;28;20451;-84
2022/06/01 13:59:03;;;;;;;3.80;1.60;;;7.10;99.90;;;;;;5090715;28;20453;-84
2022/06/01 14:01:35;;;;;;;3.75;1.58;;;7.00;99.90;;;;;;5072491;28;20394;-84